sensor_id;sensor_type;location;lat;lon;timestamp;P1;durP1;ratioP1;P2;durP2;ratioP2
49852;SDS011;35751;48.072;11.688;2022-08-21T00:00:12;6.75;;;4.60;;
49852;SDS011;35751;48.072;11.688;2022-08-21T00:02:47;6.75;;;4.95;;
49852;SDS011;35751;48.072;11.688;2022-08-21T00:05:17;7.50;;;5.15;;
49852;SDS011;35751;48.072;11.688;2022-08-21T00:07:43;6.72;;;5.68;;
49852;SDS011;35751;48.072;11.688;2022-08-21T00:10:09;8.18;;;6.38;;
49852;SDS011;35751;48.072;11.688;2022-08-21T00:12:35;7.80;;;5.55;;
49852;SDS011;35751;48.072;11.688;2022-08-21T00:15:01;8.25;;;5.90;;
49852;SDS011;35751;48.072;11.688;2022-08-21T00:17:26;6.85;;;5.07;;
49852;SDS011;35751;48.072;11.688;2022-08-21T00:19:51;13.55;;;5.60;;
49852;SDS011;35751;48.072;11.688;2022-08-21T00:22:17;7.03;;;4.32;;
49852;SDS011;35751;48.072;11.688;2022-08-21T00:24:42;7.38;;;4.40;;
49852;SDS011;35751;48.072;11.688;2022-08-21T00:27:08;5.72;;;5.07;;
49852;SDS011;35751;48.072;11.688;2022-08-21T00:29:33;6.80;;;3.90;;
49852;SDS011;35751;48.072;11.688;2022-08-21T00:31:58;4.78;;;3.85;;
49852;SDS011;35751;48.072;11.688;2022-08-21T00:34:24;6.80;;;4.68;;
49852;SDS011;35751;48.072;11.688;2022-08-21T00:36:50;7.30;;;4.07;;
49852;SDS011;35751;48.072;11.688;2022-08-21T00:39:15;6.03;;;3.67;;
49852;SDS011;35751;48.072;11.688;2022-08-21T00:41:41;5.38;;;3.70;;
49852;SDS011;35751;48.072;11.688;2022-08-21T00:44:07;4.53;;;3.30;;
49852;SDS011;35751;48.072;11.688;2022-08-21T00:46:33;4.18;;;3.78;;
49852;SDS011;35751;48.072;11.688;2022-08-21T00:48:59;8.38;;;3.85;;
49852;SDS011;35751;48.072;11.688;2022-08-21T00:51:27;3.60;;;3.25;;
49852;SDS011;35751;48.072;11.688;2022-08-21T00:53:57;9.45;;;4.82;;
49852;SDS011;35751;48.072;11.688;2022-08-21T00:56:25;4.38;;;3.08;;
49852;SDS011;35751;48.072;11.688;2022-08-21T00:58:50;4.18;;;3.15;;
49852;SDS011;35751;48.072;11.688;2022-08-21T01:01:16;4.10;;;3.20;;
49852;SDS011;35751;48.072;11.688;2022-08-21T01:03:42;3.58;;;3.05;;
49852;SDS011;35751;48.072;11.688;2022-08-21T01:06:07;3.13;;;2.67;;
49852;SDS011;35751;48.072;11.688;2022-08-21T01:08:34;3.83;;;3.38;;
49852;SDS011;35751;48.072;11.688;2022-08-21T01:11:00;3.60;;;3.13;;
49852;SDS011;35751;48.072;11.688;2022-08-21T01:13:26;4.57;;;3.63;;
49852;SDS011;35751;48.072;11.688;2022-08-21T01:15:53;3.33;;;2.92;;
49852;SDS011;35751;48.072;11.688;2022-08-21T01:18:21;4.97;;;3.15;;
49852;SDS011;35751;48.072;11.688;2022-08-21T01:23:31;4.55;;;3.22;;
49852;SDS011;35751;48.072;11.688;2022-08-21T01:25:56;3.90;;;3.40;;
49852;SDS011;35751;48.072;11.688;2022-08-21T01:28:22;3.63;;;2.85;;
49852;SDS011;35751;48.072;11.688;2022-08-21T01:30:48;4.13;;;2.80;;
49852;SDS011;35751;48.072;11.688;2022-08-21T01:33:14;4.55;;;3.08;;
49852;SDS011;35751;48.072;11.688;2022-08-21T01:35:39;4.53;;;3.00;;
49852;SDS011;35751;48.072;11.688;2022-08-21T01:38:04;4.88;;;3.10;;
49852;SDS011;35751;48.072;11.688;2022-08-21T01:40:30;3.95;;;2.80;;
49852;SDS011;35751;48.072;11.688;2022-08-21T01:42:55;4.93;;;2.95;;
49852;SDS011;35751;48.072;11.688;2022-08-21T01:45:21;4.07;;;3.10;;
49852;SDS011;35751;48.072;11.688;2022-08-21T01:47:47;2.55;;;2.35;;
49852;SDS011;35751;48.072;11.688;2022-08-21T01:50:13;4.43;;;3.22;;
49852;SDS011;35751;48.072;11.688;2022-08-21T01:52:40;3.00;;;2.50;;
49852;SDS011;35751;48.072;11.688;2022-08-21T01:55:07;3.05;;;2.75;;
49852;SDS011;35751;48.072;11.688;2022-08-21T01:57:33;4.10;;;3.28;;
49852;SDS011;35751;48.072;11.688;2022-08-21T01:59:59;8.95;;;4.07;;
49852;SDS011;35751;48.072;11.688;2022-08-21T02:02:24;3.97;;;2.83;;
49852;SDS011;35751;48.072;11.688;2022-08-21T02:04:50;5.25;;;3.10;;
49852;SDS011;35751;48.072;11.688;2022-08-21T02:07:15;3.50;;;3.20;;
49852;SDS011;35751;48.072;11.688;2022-08-21T02:09:41;3.42;;;2.63;;
49852;SDS011;35751;48.072;11.688;2022-08-21T02:12:10;4.30;;;3.00;;
49852;SDS011;35751;48.072;11.688;2022-08-21T02:14:36;4.70;;;2.63;;
49852;SDS011;35751;48.072;11.688;2022-08-21T02:17:01;5.68;;;3.25;;
49852;SDS011;35751;48.072;11.688;2022-08-21T02:19:27;6.85;;;3.22;;
49852;SDS011;35751;48.072;11.688;2022-08-21T02:21:52;5.30;;;3.05;;
49852;SDS011;35751;48.072;11.688;2022-08-21T02:24:18;4.57;;;2.75;;
49852;SDS011;35751;48.072;11.688;2022-08-21T02:26:43;3.40;;;2.97;;
49852;SDS011;35751;48.072;11.688;2022-08-21T02:29:08;4.45;;;2.72;;
49852;SDS011;35751;48.072;11.688;2022-08-21T02:31:34;6.28;;;3.08;;
49852;SDS011;35751;48.072;11.688;2022-08-21T02:33:59;3.97;;;3.35;;
49852;SDS011;35751;48.072;11.688;2022-08-21T02:36:25;7.47;;;3.15;;
49852;SDS011;35751;48.072;11.688;2022-08-21T02:38:50;4.93;;;3.35;;
49852;SDS011;35751;48.072;11.688;2022-08-21T02:41:17;9.50;;;4.05;;
49852;SDS011;35751;48.072;11.688;2022-08-21T02:43:44;3.25;;;2.63;;
49852;SDS011;35751;48.072;11.688;2022-08-21T02:46:10;5.97;;;3.33;;
49852;SDS011;35751;48.072;11.688;2022-08-21T02:48:37;3.67;;;2.70;;
49852;SDS011;35751;48.072;11.688;2022-08-21T02:51:09;3.70;;;3.28;;
49852;SDS011;35751;48.072;11.688;2022-08-21T02:53:38;3.97;;;3.15;;
49852;SDS011;35751;48.072;11.688;2022-08-21T02:56:05;2.95;;;2.42;;
49852;SDS011;35751;48.072;11.688;2022-08-21T02:58:35;3.28;;;2.72;;
49852;SDS011;35751;48.072;11.688;2022-08-21T03:01:06;4.60;;;2.70;;
49852;SDS011;35751;48.072;11.688;2022-08-21T03:03:34;4.22;;;2.70;;
49852;SDS011;35751;48.072;11.688;2022-08-21T03:06:00;5.10;;;2.80;;
49852;SDS011;35751;48.072;11.688;2022-08-21T03:08:26;3.75;;;3.13;;
49852;SDS011;35751;48.072;11.688;2022-08-21T03:10:51;3.80;;;3.03;;
49852;SDS011;35751;48.072;11.688;2022-08-21T03:13:17;3.33;;;2.85;;
49852;SDS011;35751;48.072;11.688;2022-08-21T03:15:45;3.92;;;3.35;;
49852;SDS011;35751;48.072;11.688;2022-08-21T03:18:11;3.83;;;2.95;;
49852;SDS011;35751;48.072;11.688;2022-08-21T03:20:37;3.38;;;2.80;;
49852;SDS011;35751;48.072;11.688;2022-08-21T03:23:04;5.28;;;2.90;;
49852;SDS011;35751;48.072;11.688;2022-08-21T03:25:31;3.10;;;2.80;;
49852;SDS011;35751;48.072;11.688;2022-08-21T03:27:57;6.63;;;3.90;;
49852;SDS011;35751;48.072;11.688;2022-08-21T03:30:23;4.32;;;3.17;;
49852;SDS011;35751;48.072;11.688;2022-08-21T03:32:48;4.03;;;3.15;;
49852;SDS011;35751;48.072;11.688;2022-08-21T03:35:15;5.90;;;3.40;;
49852;SDS011;35751;48.072;11.688;2022-08-21T03:37:42;4.50;;;3.40;;
49852;SDS011;35751;48.072;11.688;2022-08-21T03:40:08;5.38;;;3.30;;
49852;SDS011;35751;48.072;11.688;2022-08-21T03:42:34;4.88;;;3.40;;
49852;SDS011;35751;48.072;11.688;2022-08-21T03:44:59;7.65;;;3.92;;
49852;SDS011;35751;48.072;11.688;2022-08-21T03:47:25;4.78;;;3.20;;
49852;SDS011;35751;48.072;11.688;2022-08-21T03:49:51;6.25;;;3.47;;
49852;SDS011;35751;48.072;11.688;2022-08-21T03:52:16;5.25;;;3.78;;
49852;SDS011;35751;48.072;11.688;2022-08-21T03:54:42;6.40;;;3.40;;
49852;SDS011;35751;48.072;11.688;2022-08-21T03:57:09;5.28;;;3.75;;
49852;SDS011;35751;48.072;11.688;2022-08-21T03:59:35;4.05;;;3.65;;
49852;SDS011;35751;48.072;11.688;2022-08-21T04:02:02;8.05;;;4.22;;
49852;SDS011;35751;48.072;11.688;2022-08-21T04:04:29;5.25;;;4.07;;
49852;SDS011;35751;48.072;11.688;2022-08-21T04:06:55;4.82;;;3.80;;
49852;SDS011;35751;48.072;11.688;2022-08-21T04:09:21;5.00;;;4.35;;
49852;SDS011;35751;48.072;11.688;2022-08-21T04:11:47;6.90;;;4.55;;
49852;SDS011;35751;48.072;11.688;2022-08-21T04:14:13;6.05;;;4.75;;
49852;SDS011;35751;48.072;11.688;2022-08-21T04:16:39;6.93;;;5.38;;
49852;SDS011;35751;48.072;11.688;2022-08-21T04:19:06;8.65;;;6.03;;
49852;SDS011;35751;48.072;11.688;2022-08-21T04:21:32;6.47;;;4.68;;
49852;SDS011;35751;48.072;11.688;2022-08-21T04:23:57;4.30;;;3.85;;
49852;SDS011;35751;48.072;11.688;2022-08-21T04:26:24;4.50;;;3.60;;
49852;SDS011;35751;48.072;11.688;2022-08-21T04:28:50;5.30;;;2.92;;
49852;SDS011;35751;48.072;11.688;2022-08-21T04:31:15;6.20;;;3.30;;
49852;SDS011;35751;48.072;11.688;2022-08-21T04:33:41;4.45;;;2.75;;
49852;SDS011;35751;48.072;11.688;2022-08-21T04:36:06;5.28;;;2.95;;
49852;SDS011;35751;48.072;11.688;2022-08-21T04:38:32;4.80;;;3.15;;
49852;SDS011;35751;48.072;11.688;2022-08-21T04:40:58;6.28;;;3.20;;
49852;SDS011;35751;48.072;11.688;2022-08-21T04:43:24;4.93;;;2.75;;
49852;SDS011;35751;48.072;11.688;2022-08-21T04:45:49;2.58;;;2.35;;
49852;SDS011;35751;48.072;11.688;2022-08-21T04:48:16;4.88;;;3.15;;
49852;SDS011;35751;48.072;11.688;2022-08-21T04:51:07;3.78;;;2.50;;
49852;SDS011;35751;48.072;11.688;2022-08-21T04:53:42;5.70;;;2.20;;
49852;SDS011;35751;48.072;11.688;2022-08-21T04:56:11;5.45;;;3.00;;
49852;SDS011;35751;48.072;11.688;2022-08-21T04:58:38;3.67;;;2.60;;
49852;SDS011;35751;48.072;11.688;2022-08-21T05:01:05;3.00;;;2.25;;
49852;SDS011;35751;48.072;11.688;2022-08-21T05:03:32;10.48;;;2.53;;
49852;SDS011;35751;48.072;11.688;2022-08-21T05:05:58;2.85;;;2.50;;
49852;SDS011;35751;48.072;11.688;2022-08-21T05:08:24;2.38;;;2.17;;
49852;SDS011;35751;48.072;11.688;2022-08-21T05:10:50;3.17;;;2.88;;
49852;SDS011;35751;48.072;11.688;2022-08-21T05:13:16;3.20;;;2.53;;
49852;SDS011;35751;48.072;11.688;2022-08-21T05:15:42;3.63;;;2.67;;
49852;SDS011;35751;48.072;11.688;2022-08-21T05:18:07;3.97;;;2.75;;
49852;SDS011;35751;48.072;11.688;2022-08-21T05:20:33;5.65;;;4.25;;
49852;SDS011;35751;48.072;11.688;2022-08-21T05:23:00;5.63;;;2.55;;
49852;SDS011;35751;48.072;11.688;2022-08-21T05:25:26;5.13;;;3.15;;
49852;SDS011;35751;48.072;11.688;2022-08-21T05:27:52;3.72;;;3.00;;
49852;SDS011;35751;48.072;11.688;2022-08-21T05:30:18;7.10;;;3.20;;
49852;SDS011;35751;48.072;11.688;2022-08-21T05:32:44;3.30;;;2.72;;
49852;SDS011;35751;48.072;11.688;2022-08-21T05:35:10;3.65;;;2.80;;
49852;SDS011;35751;48.072;11.688;2022-08-21T05:37:36;3.75;;;2.60;;
49852;SDS011;35751;48.072;11.688;2022-08-21T05:40:02;2.95;;;2.50;;
49852;SDS011;35751;48.072;11.688;2022-08-21T05:42:28;4.53;;;3.05;;
49852;SDS011;35751;48.072;11.688;2022-08-21T05:44:54;4.03;;;2.95;;
49852;SDS011;35751;48.072;11.688;2022-08-21T05:47:19;3.33;;;3.03;;
49852;SDS011;35751;48.072;11.688;2022-08-21T05:49:44;3.08;;;2.70;;
49852;SDS011;35751;48.072;11.688;2022-08-21T05:52:10;3.13;;;2.55;;
49852;SDS011;35751;48.072;11.688;2022-08-21T05:54:36;3.78;;;3.20;;
49852;SDS011;35751;48.072;11.688;2022-08-21T05:57:02;3.13;;;2.60;;
49852;SDS011;35751;48.072;11.688;2022-08-21T05:59:27;3.90;;;2.65;;
49852;SDS011;35751;48.072;11.688;2022-08-21T06:01:53;5.47;;;2.88;;
49852;SDS011;35751;48.072;11.688;2022-08-21T06:04:18;3.35;;;2.97;;
49852;SDS011;35751;48.072;11.688;2022-08-21T06:06:44;3.35;;;2.75;;
49852;SDS011;35751;48.072;11.688;2022-08-21T06:09:09;3.88;;;2.53;;
49852;SDS011;35751;48.072;11.688;2022-08-21T06:11:35;2.80;;;2.50;;
49852;SDS011;35751;48.072;11.688;2022-08-21T06:14:00;4.18;;;3.05;;
49852;SDS011;35751;48.072;11.688;2022-08-21T06:16:26;3.50;;;2.55;;
49852;SDS011;35751;48.072;11.688;2022-08-21T06:18:51;3.05;;;2.75;;
49852;SDS011;35751;48.072;11.688;2022-08-21T06:21:17;2.65;;;2.45;;
49852;SDS011;35751;48.072;11.688;2022-08-21T06:23:43;2.90;;;2.40;;
49852;SDS011;35751;48.072;11.688;2022-08-21T06:26:09;3.13;;;2.75;;
49852;SDS011;35751;48.072;11.688;2022-08-21T06:28:36;3.55;;;2.35;;
49852;SDS011;35751;48.072;11.688;2022-08-21T06:31:09;3.97;;;2.63;;
49852;SDS011;35751;48.072;11.688;2022-08-21T06:33:42;2.80;;;2.45;;
49852;SDS011;35751;48.072;11.688;2022-08-21T06:36:07;3.25;;;2.20;;
49852;SDS011;35751;48.072;11.688;2022-08-21T06:38:32;3.63;;;2.03;;
49852;SDS011;35751;48.072;11.688;2022-08-21T06:40:58;4.25;;;2.08;;
49852;SDS011;35751;48.072;11.688;2022-08-21T06:43:23;6.05;;;2.42;;
49852;SDS011;35751;48.072;11.688;2022-08-21T06:45:49;2.25;;;1.92;;
49852;SDS011;35751;48.072;11.688;2022-08-21T06:48:14;2.72;;;2.30;;
49852;SDS011;35751;48.072;11.688;2022-08-21T06:50:39;4.07;;;2.63;;
49852;SDS011;35751;48.072;11.688;2022-08-21T06:53:11;4.70;;;2.58;;
49852;SDS011;35751;48.072;11.688;2022-08-21T06:55:38;2.83;;;2.15;;
49852;SDS011;35751;48.072;11.688;2022-08-21T06:58:04;3.95;;;2.40;;
49852;SDS011;35751;48.072;11.688;2022-08-21T07:00:30;3.60;;;1.90;;
49852;SDS011;35751;48.072;11.688;2022-08-21T07:02:56;2.88;;;2.15;;
49852;SDS011;35751;48.072;11.688;2022-08-21T07:05:24;5.13;;;2.17;;
49852;SDS011;35751;48.072;11.688;2022-08-21T07:07:51;3.08;;;2.00;;
49852;SDS011;35751;48.072;11.688;2022-08-21T07:10:16;3.55;;;2.60;;
49852;SDS011;35751;48.072;11.688;2022-08-21T07:12:42;4.05;;;2.38;;
49852;SDS011;35751;48.072;11.688;2022-08-21T07:15:07;6.10;;;2.40;;
49852;SDS011;35751;48.072;11.688;2022-08-21T07:17:33;4.05;;;2.58;;
49852;SDS011;35751;48.072;11.688;2022-08-21T07:19:58;4.22;;;2.60;;
49852;SDS011;35751;48.072;11.688;2022-08-21T07:22:24;5.00;;;2.40;;
49852;SDS011;35751;48.072;11.688;2022-08-21T07:24:49;3.83;;;2.72;;
49852;SDS011;35751;48.072;11.688;2022-08-21T07:27:15;3.42;;;2.75;;
49852;SDS011;35751;48.072;11.688;2022-08-21T07:29:40;3.53;;;2.15;;
49852;SDS011;35751;48.072;11.688;2022-08-21T07:32:06;3.55;;;2.40;;
49852;SDS011;35751;48.072;11.688;2022-08-21T07:34:31;3.17;;;2.22;;
49852;SDS011;35751;48.072;11.688;2022-08-21T07:36:57;2.95;;;2.22;;
49852;SDS011;35751;48.072;11.688;2022-08-21T07:39:23;3.25;;;2.30;;
49852;SDS011;35751;48.072;11.688;2022-08-21T07:41:48;3.28;;;2.42;;
49852;SDS011;35751;48.072;11.688;2022-08-21T07:44:14;4.60;;;2.92;;
49852;SDS011;35751;48.072;11.688;2022-08-21T07:46:39;3.63;;;2.50;;
49852;SDS011;35751;48.072;11.688;2022-08-21T07:49:04;5.18;;;2.55;;
49852;SDS011;35751;48.072;11.688;2022-08-21T07:51:30;3.88;;;2.55;;
49852;SDS011;35751;48.072;11.688;2022-08-21T07:53:56;5.18;;;2.58;;
49852;SDS011;35751;48.072;11.688;2022-08-21T07:56:23;4.15;;;2.80;;
49852;SDS011;35751;48.072;11.688;2022-08-21T07:58:48;5.30;;;3.03;;
49852;SDS011;35751;48.072;11.688;2022-08-21T08:01:13;6.18;;;3.17;;
49852;SDS011;35751;48.072;11.688;2022-08-21T08:03:39;5.70;;;3.05;;
49852;SDS011;35751;48.072;11.688;2022-08-21T08:06:05;3.47;;;2.67;;
49852;SDS011;35751;48.072;11.688;2022-08-21T08:08:33;4.60;;;2.95;;
49852;SDS011;35751;48.072;11.688;2022-08-21T08:10:59;5.80;;;3.08;;
49852;SDS011;35751;48.072;11.688;2022-08-21T08:13:25;3.40;;;2.88;;
49852;SDS011;35751;48.072;11.688;2022-08-21T08:15:50;4.78;;;2.88;;
49852;SDS011;35751;48.072;11.688;2022-08-21T08:18:16;4.45;;;3.10;;
49852;SDS011;35751;48.072;11.688;2022-08-21T08:20:41;4.43;;;3.55;;
49852;SDS011;35751;48.072;11.688;2022-08-21T08:23:09;5.03;;;3.08;;
49852;SDS011;35751;48.072;11.688;2022-08-21T08:25:35;5.15;;;3.22;;
49852;SDS011;35751;48.072;11.688;2022-08-21T08:28:00;4.07;;;3.25;;
49852;SDS011;35751;48.072;11.688;2022-08-21T08:30:26;3.22;;;2.80;;
49852;SDS011;35751;48.072;11.688;2022-08-21T08:32:51;4.05;;;2.45;;
49852;SDS011;35751;48.072;11.688;2022-08-21T08:35:16;3.70;;;3.00;;
49852;SDS011;35751;48.072;11.688;2022-08-21T08:37:42;4.50;;;3.35;;
49852;SDS011;35751;48.072;11.688;2022-08-21T08:40:11;3.28;;;2.70;;
49852;SDS011;35751;48.072;11.688;2022-08-21T08:42:39;5.80;;;2.60;;
49852;SDS011;35751;48.072;11.688;2022-08-21T08:47:32;3.60;;;3.00;;
49852;SDS011;35751;48.072;11.688;2022-08-21T08:52:34;4.38;;;2.67;;
49852;SDS011;35751;48.072;11.688;2022-08-21T08:55:18;6.18;;;3.05;;
49852;SDS011;35751;48.072;11.688;2022-08-21T08:58:05;7.93;;;2.60;;
49852;SDS011;35751;48.072;11.688;2022-08-21T09:00:31;6.13;;;3.10;;
49852;SDS011;35751;48.072;11.688;2022-08-21T09:02:59;5.20;;;3.00;;
49852;SDS011;35751;48.072;11.688;2022-08-21T09:05:27;3.95;;;2.78;;
49852;SDS011;35751;48.072;11.688;2022-08-21T09:16:09;3.08;;;2.88;;
49852;SDS011;35751;48.072;11.688;2022-08-21T09:21:20;3.42;;;2.80;;
49852;SDS011;35751;48.072;11.688;2022-08-21T09:23:55;3.67;;;2.65;;
49852;SDS011;35751;48.072;11.688;2022-08-21T09:26:26;4.75;;;3.10;;
49852;SDS011;35751;48.072;11.688;2022-08-21T09:29:21;3.00;;;2.47;;
49852;SDS011;35751;48.072;11.688;2022-08-21T09:31:49;4.13;;;3.00;;
49852;SDS011;35751;48.072;11.688;2022-08-21T09:34:23;3.10;;;2.80;;
49852;SDS011;35751;48.072;11.688;2022-08-21T09:36:53;3.78;;;3.05;;
49852;SDS011;35751;48.072;11.688;2022-08-21T09:39:24;3.95;;;2.83;;
49852;SDS011;35751;48.072;11.688;2022-08-21T09:41:58;2.55;;;2.35;;
49852;SDS011;35751;48.072;11.688;2022-08-21T09:44:29;3.83;;;3.35;;
49852;SDS011;35751;48.072;11.688;2022-08-21T09:47:01;5.50;;;3.17;;
49852;SDS011;35751;48.072;11.688;2022-08-21T09:49:27;3.63;;;3.28;;
49852;SDS011;35751;48.072;11.688;2022-08-21T09:51:58;3.53;;;3.20;;
49852;SDS011;35751;48.072;11.688;2022-08-21T09:54:30;3.30;;;3.00;;
49852;SDS011;35751;48.072;11.688;2022-08-21T09:56:58;3.67;;;3.30;;
49852;SDS011;35751;48.072;11.688;2022-08-21T09:59:44;5.53;;;3.80;;
49852;SDS011;35751;48.072;11.688;2022-08-21T10:04:53;3.85;;;2.95;;
49852;SDS011;35751;48.072;11.688;2022-08-21T10:07:24;4.65;;;3.28;;
49852;SDS011;35751;48.072;11.688;2022-08-21T10:10:03;3.90;;;3.28;;
49852;SDS011;35751;48.072;11.688;2022-08-21T10:12:39;5.10;;;3.63;;
49852;SDS011;35751;48.072;11.688;2022-08-21T10:18:03;2.97;;;2.67;;
49852;SDS011;35751;48.072;11.688;2022-08-21T10:23:20;2.65;;;2.45;;
49852;SDS011;35751;48.072;11.688;2022-08-21T10:31:00;3.30;;;3.00;;
49852;SDS011;35751;48.072;11.688;2022-08-21T10:36:19;2.53;;;2.33;;
49852;SDS011;35751;48.072;11.688;2022-08-21T10:38:52;6.07;;;3.22;;
49852;SDS011;35751;48.072;11.688;2022-08-21T10:49:57;3.20;;;2.90;;
49852;SDS011;35751;48.072;11.688;2022-08-21T10:55:38;2.67;;;2.33;;
49852;SDS011;35751;48.072;11.688;2022-08-21T11:10:57;2.60;;;2.40;;
49852;SDS011;35751;48.072;11.688;2022-08-21T11:13:40;6.20;;;2.70;;
49852;SDS011;35751;48.072;11.688;2022-08-21T11:16:19;4.05;;;2.60;;
49852;SDS011;35751;48.072;11.688;2022-08-21T11:18:50;4.25;;;2.67;;
49852;SDS011;35751;48.072;11.688;2022-08-21T11:24:15;8.73;;;2.45;;
49852;SDS011;35751;48.072;11.688;2022-08-21T11:26:59;2.30;;;2.10;;
49852;SDS011;35751;48.072;11.688;2022-08-21T11:29:33;3.00;;;2.63;;
49852;SDS011;35751;48.072;11.688;2022-08-21T11:35:03;4.35;;;2.60;;
49852;SDS011;35751;48.072;11.688;2022-08-21T11:41:28;2.72;;;1.98;;
49852;SDS011;35751;48.072;11.688;2022-08-21T11:52:15;3.60;;;2.38;;
49852;SDS011;35751;48.072;11.688;2022-08-21T11:57:57;3.05;;;2.75;;
49852;SDS011;35751;48.072;11.688;2022-08-21T12:03:08;4.15;;;2.95;;
49852;SDS011;35751;48.072;11.688;2022-08-21T12:05:45;2.92;;;2.35;;
49852;SDS011;35751;48.072;11.688;2022-08-21T12:08:35;2.78;;;2.47;;
49852;SDS011;35751;48.072;11.688;2022-08-21T12:13:28;2.58;;;2.38;;
49852;SDS011;35751;48.072;11.688;2022-08-21T12:16:12;2.38;;;2.17;;
49852;SDS011;35751;48.072;11.688;2022-08-21T12:18:39;3.50;;;2.60;;
49852;SDS011;35751;48.072;11.688;2022-08-21T12:21:26;2.22;;;2.03;;
49852;SDS011;35751;48.072;11.688;2022-08-21T12:24:15;2.63;;;2.38;;
49852;SDS011;35751;48.072;11.688;2022-08-21T12:26:57;2.28;;;2.08;;
49852;SDS011;35751;48.072;11.688;2022-08-21T12:29:38;2.77;;;2.50;;
49852;SDS011;35751;48.072;11.688;2022-08-21T12:34:35;3.03;;;2.72;;
49852;SDS011;35751;48.072;11.688;2022-08-21T12:37:04;2.75;;;2.47;;
49852;SDS011;35751;48.072;11.688;2022-08-21T12:39:36;2.80;;;2.50;;
49852;SDS011;35751;48.072;11.688;2022-08-21T12:47:31;2.63;;;2.42;;
49852;SDS011;35751;48.072;11.688;2022-08-21T12:50:06;2.83;;;2.40;;
49852;SDS011;35751;48.072;11.688;2022-08-21T12:52:45;2.75;;;2.35;;
49852;SDS011;35751;48.072;11.688;2022-08-21T12:55:24;3.72;;;2.38;;
49852;SDS011;35751;48.072;11.688;2022-08-21T12:57:51;3.30;;;2.15;;
49852;SDS011;35751;48.072;11.688;2022-08-21T13:00:19;2.85;;;2.45;;
49852;SDS011;35751;48.072;11.688;2022-08-21T13:02:47;3.03;;;2.70;;
49852;SDS011;35751;48.072;11.688;2022-08-21T13:05:14;3.15;;;2.88;;
49852;SDS011;35751;48.072;11.688;2022-08-21T13:07:45;3.10;;;2.72;;
49852;SDS011;35751;48.072;11.688;2022-08-21T13:10:22;2.95;;;2.63;;
49852;SDS011;35751;48.072;11.688;2022-08-21T13:12:50;3.45;;;2.45;;
49852;SDS011;35751;48.072;11.688;2022-08-21T13:15:22;6.03;;;3.00;;
49852;SDS011;35751;48.072;11.688;2022-08-21T13:20:22;3.22;;;2.55;;
49852;SDS011;35751;48.072;11.688;2022-08-21T13:22:49;4.00;;;3.35;;
49852;SDS011;35751;48.072;11.688;2022-08-21T13:25:17;3.42;;;2.67;;
49852;SDS011;35751;48.072;11.688;2022-08-21T13:27:44;3.08;;;2.40;;
49852;SDS011;35751;48.072;11.688;2022-08-21T13:30:22;3.70;;;2.88;;
49852;SDS011;35751;48.072;11.688;2022-08-21T13:32:51;2.85;;;2.58;;
49852;SDS011;35751;48.072;11.688;2022-08-21T13:35:22;5.72;;;3.00;;
49852;SDS011;35751;48.072;11.688;2022-08-21T13:37:50;5.22;;;3.17;;
49852;SDS011;35751;48.072;11.688;2022-08-21T13:40:18;2.65;;;2.45;;
49852;SDS011;35751;48.072;11.688;2022-08-21T13:42:50;2.45;;;2.25;;
49852;SDS011;35751;48.072;11.688;2022-08-21T13:45:18;3.95;;;2.83;;
49852;SDS011;35751;48.072;11.688;2022-08-21T13:47:48;3.17;;;2.88;;
49852;SDS011;35751;48.072;11.688;2022-08-21T13:50:15;2.90;;;2.60;;
49852;SDS011;35751;48.072;11.688;2022-08-21T13:52:54;3.70;;;2.63;;
49852;SDS011;35751;48.072;11.688;2022-08-21T13:55:26;2.65;;;2.42;;
49852;SDS011;35751;48.072;11.688;2022-08-21T13:58:01;2.67;;;2.47;;
49852;SDS011;35751;48.072;11.688;2022-08-21T14:00:29;3.55;;;2.35;;
49852;SDS011;35751;48.072;11.688;2022-08-21T14:03:04;3.92;;;2.47;;
49852;SDS011;35751;48.072;11.688;2022-08-21T14:08:00;4.15;;;2.40;;
49852;SDS011;35751;48.072;11.688;2022-08-21T14:10:37;3.80;;;2.50;;
49852;SDS011;35751;48.072;11.688;2022-08-21T14:13:07;3.30;;;2.35;;
49852;SDS011;35751;48.072;11.688;2022-08-21T14:15:53;3.10;;;2.40;;
49852;SDS011;35751;48.072;11.688;2022-08-21T14:18:21;3.47;;;2.28;;
49852;SDS011;35751;48.072;11.688;2022-08-21T14:20:50;2.75;;;2.55;;
49852;SDS011;35751;48.072;11.688;2022-08-21T14:23:25;2.83;;;2.60;;
49852;SDS011;35751;48.072;11.688;2022-08-21T14:25:52;2.80;;;2.42;;
49852;SDS011;35751;48.072;11.688;2022-08-21T14:30:45;2.70;;;2.42;;
49852;SDS011;35751;48.072;11.688;2022-08-21T14:33:12;5.00;;;2.38;;
49852;SDS011;35751;48.072;11.688;2022-08-21T14:35:40;4.47;;;2.60;;
49852;SDS011;35751;48.072;11.688;2022-08-21T14:38:17;2.65;;;2.45;;
49852;SDS011;35751;48.072;11.688;2022-08-21T14:40:47;3.13;;;2.63;;
49852;SDS011;35751;48.072;11.688;2022-08-21T14:43:20;4.30;;;2.53;;
49852;SDS011;35751;48.072;11.688;2022-08-21T14:45:46;2.83;;;2.33;;
49852;SDS011;35751;48.072;11.688;2022-08-21T14:48:12;2.65;;;2.22;;
49852;SDS011;35751;48.072;11.688;2022-08-21T14:50:37;3.33;;;2.88;;
49852;SDS011;35751;48.072;11.688;2022-08-21T14:53:02;2.45;;;2.22;;
49852;SDS011;35751;48.072;11.688;2022-08-21T14:55:29;3.42;;;2.40;;
49852;SDS011;35751;48.072;11.688;2022-08-21T14:57:55;3.13;;;2.10;;
49852;SDS011;35751;48.072;11.688;2022-08-21T15:00:22;4.68;;;3.00;;
49852;SDS011;35751;48.072;11.688;2022-08-21T15:02:48;3.25;;;2.40;;
49852;SDS011;35751;48.072;11.688;2022-08-21T15:05:14;2.40;;;2.17;;
49852;SDS011;35751;48.072;11.688;2022-08-21T15:07:40;3.00;;;2.70;;
49852;SDS011;35751;48.072;11.688;2022-08-21T15:10:08;3.58;;;2.15;;
49852;SDS011;35751;48.072;11.688;2022-08-21T15:12:33;2.50;;;2.15;;
49852;SDS011;35751;48.072;11.688;2022-08-21T15:14:59;3.00;;;2.65;;
49852;SDS011;35751;48.072;11.688;2022-08-21T15:17:25;2.75;;;2.42;;
49852;SDS011;35751;48.072;11.688;2022-08-21T15:19:50;2.72;;;2.42;;
49852;SDS011;35751;48.072;11.688;2022-08-21T15:22:15;3.38;;;3.08;;
49852;SDS011;35751;48.072;11.688;2022-08-21T15:24:41;3.50;;;2.75;;
49852;SDS011;35751;48.072;11.688;2022-08-21T15:27:06;3.88;;;2.60;;
49852;SDS011;35751;48.072;11.688;2022-08-21T15:29:33;5.13;;;2.22;;
49852;SDS011;35751;48.072;11.688;2022-08-21T15:32:00;2.78;;;2.47;;
49852;SDS011;35751;48.072;11.688;2022-08-21T15:34:28;3.88;;;2.60;;
49852;SDS011;35751;48.072;11.688;2022-08-21T15:36:55;3.88;;;2.47;;
49852;SDS011;35751;48.072;11.688;2022-08-21T15:39:21;2.80;;;2.50;;
49852;SDS011;35751;48.072;11.688;2022-08-21T15:41:46;2.70;;;2.50;;
49852;SDS011;35751;48.072;11.688;2022-08-21T15:44:12;3.42;;;2.10;;
49852;SDS011;35751;48.072;11.688;2022-08-21T15:46:38;3.85;;;2.22;;
49852;SDS011;35751;48.072;11.688;2022-08-21T15:49:04;2.70;;;2.50;;
49852;SDS011;35751;48.072;11.688;2022-08-21T15:51:29;5.65;;;2.67;;
49852;SDS011;35751;48.072;11.688;2022-08-21T15:53:55;3.53;;;2.50;;
49852;SDS011;35751;48.072;11.688;2022-08-21T15:56:22;2.58;;;2.38;;
49852;SDS011;35751;48.072;11.688;2022-08-21T15:58:49;3.20;;;2.83;;
49852;SDS011;35751;48.072;11.688;2022-08-21T16:01:16;2.60;;;2.38;;
49852;SDS011;35751;48.072;11.688;2022-08-21T16:03:42;4.50;;;3.65;;
49852;SDS011;35751;48.072;11.688;2022-08-21T16:06:09;3.45;;;2.72;;
49852;SDS011;35751;48.072;11.688;2022-08-21T16:08:34;3.67;;;3.00;;
49852;SDS011;35751;48.072;11.688;2022-08-21T16:11:00;4.53;;;2.80;;
49852;SDS011;35751;48.072;11.688;2022-08-21T16:13:27;2.72;;;2.38;;
49852;SDS011;35751;48.072;11.688;2022-08-21T16:15:54;3.63;;;3.25;;
49852;SDS011;35751;48.072;11.688;2022-08-21T16:18:20;3.40;;;2.95;;